sensor_id;sensor_type;location;lat;lon;timestamp;temperature;humidity
15184;DHT22;7693;49.266;7.104;2024-03-23T00:53:15;11.40;99.90
15184;DHT22;7693;49.266;7.104;2024-03-23T07:15:03;7.70;99.90
15184;DHT22;7693;49.266;7.104;2024-03-23T07:17:29;7.80;99.90
15184;DHT22;7693;49.266;7.104;2024-03-23T07:19:55;7.80;99.90
15184;DHT22;7693;49.266;7.104;2024-03-23T07:22:20;7.80;99.90
15184;DHT22;7693;49.266;7.104;2024-03-23T07:24:47;7.90;99.90
15184;DHT22;7693;49.266;7.104;2024-03-23T07:27:12;7.90;99.90
15184;DHT22;7693;49.266;7.104;2024-03-23T07:29:38;8.10;99.90
15184;DHT22;7693;49.266;7.104;2024-03-23T07:32:04;8.10;99.90
15184;DHT22;7693;49.266;7.104;2024-03-23T07:34:29;8.10;99.90
15184;DHT22;7693;49.266;7.104;2024-03-23T07:36:55;8.10;99.90
15184;DHT22;7693;49.266;7.104;2024-03-23T07:39:21;8.10;99.90
15184;DHT22;7693;49.266;7.104;2024-03-23T07:41:46;8.20;99.90
15184;DHT22;7693;49.266;7.104;2024-03-23T07:44:12;8.20;99.90
15184;DHT22;7693;49.266;7.104;2024-03-23T07:46:38;8.20;99.90
15184;DHT22;7693;49.266;7.104;2024-03-23T07:49:06;8.30;99.90
15184;DHT22;7693;49.266;7.104;2024-03-23T07:51:32;8.30;99.90
15184;DHT22;7693;49.266;7.104;2024-03-23T07:53:59;8.30;99.90
15184;DHT22;7693;49.266;7.104;2024-03-23T07:56:24;8.40;99.90
15184;DHT22;7693;49.266;7.104;2024-03-23T07:58:50;8.50;99.90
15184;DHT22;7693;49.266;7.104;2024-03-23T08:01:16;8.50;99.90
15184;DHT22;7693;49.266;7.104;2024-03-23T08:03:43;8.40;99.90
15184;DHT22;7693;49.266;7.104;2024-03-23T08:06:14;8.40;99.90
15184;DHT22;7693;49.266;7.104;2024-03-23T08:08:41;8.30;99.90
15184;DHT22;7693;49.266;7.104;2024-03-23T08:11:08;8.20;99.90
15184;DHT22;7693;49.266;7.104;2024-03-23T08:13:34;8.20;99.90
15184;DHT22;7693;49.266;7.104;2024-03-23T08:16:02;8.20;99.90
15184;DHT22;7693;49.266;7.104;2024-03-23T08:18:28;8.20;99.90
15184;DHT22;7693;49.266;7.104;2024-03-23T08:21:11;8.20;99.90
15184;DHT22;7693;49.266;7.104;2024-03-23T08:23:37;8.20;99.90
15184;DHT22;7693;49.266;7.104;2024-03-23T08:26:08;8.20;99.90
15184;DHT22;7693;49.266;7.104;2024-03-23T08:28:34;8.20;99.90
15184;DHT22;7693;49.266;7.104;2024-03-23T08:31:13;8.20;99.90
15184;DHT22;7693;49.266;7.104;2024-03-23T08:33:40;8.10;99.90
15184;DHT22;7693;49.266;7.104;2024-03-23T08:36:09;8.10;99.90
15184;DHT22;7693;49.266;7.104;2024-03-23T08:38:35;8.10;99.90
15184;DHT22;7693;49.266;7.104;2024-03-23T08:43:30;8.20;99.90
15184;DHT22;7693;49.266;7.104;2024-03-23T08:46:12;8.20;99.90
15184;DHT22;7693;49.266;7.104;2024-03-23T08:48:45;8.30;99.90
15184;DHT22;7693;49.266;7.104;2024-03-23T08:51:13;8.40;99.90
15184;DHT22;7693;49.266;7.104;2024-03-23T08:53:39;8.40;99.90
15184;DHT22;7693;49.266;7.104;2024-03-23T08:56:06;8.40;99.90
15184;DHT22;7693;49.266;7.104;2024-03-23T08:58:33;8.30;99.90
15184;DHT22;7693;49.266;7.104;2024-03-23T09:01:10;8.20;99.90
15184;DHT22;7693;49.266;7.104;2024-03-23T09:03:36;8.20;99.90
15184;DHT22;7693;49.266;7.104;2024-03-23T09:06:15;8.30;99.90
15184;DHT22;7693;49.266;7.104;2024-03-23T09:08:41;8.40;99.90
15184;DHT22;7693;49.266;7.104;2024-03-23T09:11:08;8.50;99.90
15184;DHT22;7693;49.266;7.104;2024-03-23T09:13:35;8.50;99.90
15184;DHT22;7693;49.266;7.104;2024-03-23T09:16:01;8.60;99.90
15184;DHT22;7693;49.266;7.104;2024-03-23T09:18:27;8.60;99.90
15184;DHT22;7693;49.266;7.104;2024-03-23T09:20:53;8.70;99.90
15184;DHT22;7693;49.266;7.104;2024-03-23T09:23:20;8.80;99.90
15184;DHT22;7693;49.266;7.104;2024-03-23T09:25:46;8.90;99.90
15184;DHT22;7693;49.266;7.104;2024-03-23T09:28:12;9.00;99.90
15184;DHT22;7693;49.266;7.104;2024-03-23T09:30:37;9.00;99.90
15184;DHT22;7693;49.266;7.104;2024-03-23T09:33:10;9.20;99.90
15184;DHT22;7693;49.266;7.104;2024-03-23T09:35:39;9.30;99.90
15184;DHT22;7693;49.266;7.104;2024-03-23T09:38:05;9.30;99.90
15184;DHT22;7693;49.266;7.104;2024-03-23T09:40:33;9.40;99.90
15184;DHT22;7693;49.266;7.104;2024-03-23T09:42:59;9.50;99.90
15184;DHT22;7693;49.266;7.104;2024-03-23T09:45:29;9.70;99.90
15184;DHT22;7693;49.266;7.104;2024-03-23T09:47:55;9.80;99.90
15184;DHT22;7693;49.266;7.104;2024-03-23T09:50:22;9.90;99.90
15184;DHT22;7693;49.266;7.104;2024-03-23T09:52:48;9.90;99.90
15184;DHT22;7693;49.266;7.104;2024-03-23T09:55:14;10.10;99.90
15184;DHT22;7693;49.266;7.104;2024-03-23T09:57:42;10.20;99.90
15184;DHT22;7693;49.266;7.104;2024-03-23T10:00:09;10.10;99.90
15184;DHT22;7693;49.266;7.104;2024-03-23T10:02:35;10.10;99.90
15184;DHT22;7693;49.266;7.104;2024-03-23T10:05:01;10.00;99.90
15184;DHT22;7693;49.266;7.104;2024-03-23T10:07:27;9.90;99.90
15184;DHT22;7693;49.266;7.104;2024-03-23T10:09:56;9.90;99.90
15184;DHT22;7693;49.266;7.104;2024-03-23T10:12:23;9.90;99.90
15184;DHT22;7693;49.266;7.104;2024-03-23T10:14:49;9.90;99.90
15184;DHT22;7693;49.266;7.104;2024-03-23T10:17:21;9.90;99.90
15184;DHT22;7693;49.266;7.104;2024-03-23T10:19:51;10.00;99.90
15184;DHT22;7693;49.266;7.104;2024-03-23T10:22:21;10.00;99.90
15184;DHT22;7693;49.266;7.104;2024-03-23T10:24:47;10.00;99.90
15184;DHT22;7693;49.266;7.104;2024-03-23T10:27:20;10.00;99.90
15184;DHT22;7693;49.266;7.104;2024-03-23T10:29:50;10.00;99.90
15184;DHT22;7693;49.266;7.104;2024-03-23T10:32:17;9.90;99.90
15184;DHT22;7693;49.266;7.104;2024-03-23T10:34:43;9.80;99.90
15184;DHT22;7693;49.266;7.104;2024-03-23T10:37:09;9.60;99.90
15184;DHT22;7693;49.266;7.104;2024-03-23T10:39:39;9.30;99.90
15184;DHT22;7693;49.266;7.104;2024-03-23T10:42:09;9.00;99.90
15184;DHT22;7693;49.266;7.104;2024-03-23T10:44:38;8.70;99.90
15184;DHT22;7693;49.266;7.104;2024-03-23T10:47:04;8.60;99.90
15184;DHT22;7693;49.266;7.104;2024-03-23T10:49:32;8.70;99.90
15184;DHT22;7693;49.266;7.104;2024-03-23T10:51:59;8.80;99.90
15184;DHT22;7693;49.266;7.104;2024-03-23T10:54:26;8.90;99.90
15184;DHT22;7693;49.266;7.104;2024-03-23T10:59:22;9.10;99.90
15184;DHT22;7693;49.266;7.104;2024-03-23T11:01:58;9.20;99.90
15184;DHT22;7693;49.266;7.104;2024-03-23T11:04:43;9.30;99.90
15184;DHT22;7693;49.266;7.104;2024-03-23T11:07:38;9.50;99.90
15184;DHT22;7693;49.266;7.104;2024-03-23T11:10:27;9.90;99.90
15184;DHT22;7693;49.266;7.104;2024-03-23T11:12:54;10.10;99.90
15184;DHT22;7693;49.266;7.104;2024-03-23T11:15:20;10.20;99.90
15184;DHT22;7693;49.266;7.104;2024-03-23T11:18:06;10.30;99.90
15184;DHT22;7693;49.266;7.104;2024-03-23T11:20:35;10.30;99.90
15184;DHT22;7693;49.266;7.104;2024-03-23T11:23:01;10.20;99.90
15184;DHT22;7693;49.266;7.104;2024-03-23T11:25:28;10.00;99.90
15184;DHT22;7693;49.266;7.104;2024-03-23T11:27:55;9.40;99.90
15184;DHT22;7693;49.266;7.104;2024-03-23T11:30:24;8.80;99.90
15184;DHT22;7693;49.266;7.104;2024-03-23T11:32:52;8.40;99.90
15184;DHT22;7693;49.266;7.104;2024-03-23T11:35:29;8.00;99.90
15184;DHT22;7693;49.266;7.104;2024-03-23T11:38:17;7.80;99.90
15184;DHT22;7693;49.266;7.104;2024-03-23T11:40:48;7.60;99.90
15184;DHT22;7693;49.266;7.104;2024-03-23T13:02:55;8.90;99.90
15184;DHT22;7693;49.266;7.104;2024-03-23T13:05:21;9.10;99.90
15184;DHT22;7693;49.266;7.104;2024-03-23T13:07:47;9.00;99.90
15184;DHT22;7693;49.266;7.104;2024-03-23T13:10:12;9.00;99.90
15184;DHT22;7693;49.266;7.104;2024-03-23T13:12:39;8.90;99.90
15184;DHT22;7693;49.266;7.104;2024-03-23T13:15:06;8.60;99.90
15184;DHT22;7693;49.266;7.104;2024-03-23T13:17:31;8.30;99.90
15184;DHT22;7693;49.266;7.104;2024-03-23T13:19:57;8.10;99.90
15184;DHT22;7693;49.266;7.104;2024-03-23T13:22:23;8.10;99.90
15184;DHT22;7693;49.266;7.104;2024-03-23T13:24:48;8.20;99.90
15184;DHT22;7693;49.266;7.104;2024-03-23T13:27:14;8.40;99.90
15184;DHT22;7693;49.266;7.104;2024-03-23T13:29:40;8.50;99.90
15184;DHT22;7693;49.266;7.104;2024-03-23T13:32:06;8.60;99.90
15184;DHT22;7693;49.266;7.104;2024-03-23T13:34:32;8.70;99.90
15184;DHT22;7693;49.266;7.104;2024-03-23T13:36:59;8.90;99.90
15184;DHT22;7693;49.266;7.104;2024-03-23T13:39:25;9.00;99.90
15184;DHT22;7693;49.266;7.104;2024-03-23T13:41:52;9.10;99.90
15184;DHT22;7693;49.266;7.104;2024-03-23T13:44:18;9.30;99.90
15184;DHT22;7693;49.266;7.104;2024-03-23T13:46:44;9.40;99.90
15184;DHT22;7693;49.266;7.104;2024-03-23T13:51:52;9.70;99.90
15184;DHT22;7693;49.266;7.104;2024-03-23T13:54:18;9.80;99.90
15184;DHT22;7693;49.266;7.104;2024-03-23T13:56:44;9.90;99.90
15184;DHT22;7693;49.266;7.104;2024-03-23T13:59:10;10.10;99.90
15184;DHT22;7693;49.266;7.104;2024-03-23T14:01:35;10.30;99.90
15184;DHT22;7693;49.266;7.104;2024-03-23T14:04:01;10.30;99.90
15184;DHT22;7693;49.266;7.104;2024-03-23T14:06:27;10.30;99.90
15184;DHT22;7693;49.266;7.104;2024-03-23T14:08:52;10.20;99.90
15184;DHT22;7693;49.266;7.104;2024-03-23T14:11:18;10.00;99.90
15184;DHT22;7693;49.266;7.104;2024-03-23T14:13:44;9.90;99.90
15184;DHT22;7693;49.266;7.104;2024-03-23T14:16:10;9.80;99.90
15184;DHT22;7693;49.266;7.104;2024-03-23T14:18:36;9.70;99.90
15184;DHT22;7693;49.266;7.104;2024-03-23T14:21:02;9.50;99.90
15184;DHT22;7693;49.266;7.104;2024-03-23T14:23:29;9.00;99.90
15184;DHT22;7693;49.266;7.104;2024-03-23T14:25:56;8.50;99.90
15184;DHT22;7693;49.266;7.104;2024-03-23T14:28:22;8.30;99.90
15184;DHT22;7693;49.266;7.104;2024-03-23T14:30:51;8.30;99.90
15184;DHT22;7693;49.266;7.104;2024-03-23T14:33:18;8.30;99.90
15184;DHT22;7693;49.266;7.104;2024-03-23T14:35:51;8.30;99.90
15184;DHT22;7693;49.266;7.104;2024-03-23T14:38:18;8.20;99.90
15184;DHT22;7693;49.266;7.104;2024-03-23T14:40:44;8.10;99.90
15184;DHT22;7693;49.266;7.104;2024-03-23T14:43:10;8.30;99.90
15184;DHT22;7693;49.266;7.104;2024-03-23T14:45:35;8.40;99.90
15184;DHT22;7693;49.266;7.104;2024-03-23T14:48:02;8.70;99.90
15184;DHT22;7693;49.266;7.104;2024-03-23T14:50:27;9.00;99.90
15184;DHT22;7693;49.266;7.104;2024-03-23T14:52:53;9.20;99.90
15184;DHT22;7693;49.266;7.104;2024-03-23T14:55:19;9.40;99.90
15184;DHT22;7693;49.266;7.104;2024-03-23T14:57:45;9.60;99.90
15184;DHT22;7693;49.266;7.104;2024-03-23T15:00:11;9.80;99.90
15184;DHT22;7693;49.266;7.104;2024-03-23T15:02:37;10.10;99.90
15184;DHT22;7693;49.266;7.104;2024-03-23T15:05:04;10.00;99.90
15184;DHT22;7693;49.266;7.104;2024-03-23T15:07:31;9.80;99.90
15184;DHT22;7693;49.266;7.104;2024-03-23T15:09:56;9.70;99.90
15184;DHT22;7693;49.266;7.104;2024-03-23T15:12:22;9.60;99.90
15184;DHT22;7693;49.266;7.104;2024-03-23T15:14:48;9.50;99.90
15184;DHT22;7693;49.266;7.104;2024-03-23T15:17:14;9.40;99.90
15184;DHT22;7693;49.266;7.104;2024-03-23T15:19:40;9.30;99.90
15184;DHT22;7693;49.266;7.104;2024-03-23T15:22:07;9.20;99.90
15184;DHT22;7693;49.266;7.104;2024-03-23T15:24:34;9.00;99.90
15184;DHT22;7693;49.266;7.104;2024-03-23T15:27:01;9.00;99.90
15184;DHT22;7693;49.266;7.104;2024-03-23T15:29:27;8.80;99.90
15184;DHT22;7693;49.266;7.104;2024-03-23T15:31:52;8.30;99.90
15184;DHT22;7693;49.266;7.104;2024-03-23T15:34:21;7.50;99.90
15184;DHT22;7693;49.266;7.104;2024-03-23T15:36:48;6.60;99.90
15184;DHT22;7693;49.266;7.104;2024-03-23T15:39:16;6.20;99.90
15184;DHT22;7693;49.266;7.104;2024-03-23T15:41:44;5.90;99.90
15184;DHT22;7693;49.266;7.104;2024-03-23T15:44:09;5.60;99.90
15184;DHT22;7693;49.266;7.104;2024-03-23T15:46:35;5.60;99.90
15184;DHT22;7693;49.266;7.104;2024-03-23T15:49:01;5.70;99.90
15184;DHT22;7693;49.266;7.104;2024-03-23T15:51:27;5.80;99.90
15184;DHT22;7693;49.266;7.104;2024-03-23T15:53:58;5.90;99.90
15184;DHT22;7693;49.266;7.104;2024-03-23T15:56:24;6.10;99.90
15184;DHT22;7693;49.266;7.104;2024-03-23T15:58:50;6.20;99.90
15184;DHT22;7693;49.266;7.104;2024-03-23T16:01:15;6.30;99.90
15184;DHT22;7693;49.266;7.104;2024-03-23T16:03:41;6.30;99.90
15184;DHT22;7693;49.266;7.104;2024-03-23T16:06:07;6.30;99.90
15184;DHT22;7693;49.266;7.104;2024-03-23T16:08:33;6.30;99.90
15184;DHT22;7693;49.266;7.104;2024-03-23T16:11:00;6.30;99.90
15184;DHT22;7693;49.266;7.104;2024-03-23T16:13:26;6.30;99.90
15184;DHT22;7693;49.266;7.104;2024-03-23T16:16:03;6.30;99.90
15184;DHT22;7693;49.266;7.104;2024-03-23T16:18:30;6.30;99.90
15184;DHT22;7693;49.266;7.104;2024-03-23T16:20:57;6.30;99.90
15184;DHT22;7693;49.266;7.104;2024-03-23T16:23:24;6.30;99.90
15184;DHT22;7693;49.266;7.104;2024-03-23T16:25:51;6.30;99.90
15184;DHT22;7693;49.266;7.104;2024-03-23T16:28:23;6.30;99.90
15184;DHT22;7693;49.266;7.104;2024-03-23T16:30:55;6.40;99.90
15184;DHT22;7693;49.266;7.104;2024-03-23T16:33:22;6.40;99.90
15184;DHT22;7693;49.266;7.104;2024-03-23T16:36:03;6.40;99.90
15184;DHT22;7693;49.266;7.104;2024-03-23T16:38:36;6.40;99.90
15184;DHT22;7693;49.266;7.104;2024-03-23T16:41:04;6.30;99.90
15184;DHT22;7693;49.266;7.104;2024-03-23T16:43:34;6.40;99.90
15184;DHT22;7693;49.266;7.104;2024-03-23T16:46:01;6.40;99.90
15184;DHT22;7693;49.266;7.104;2024-03-23T16:48:29;6.40;99.90
15184;DHT22;7693;49.266;7.104;2024-03-23T16:51:02;6.50;99.90
15184;DHT22;7693;49.266;7.104;2024-03-23T16:53:30;6.50;99.90
15184;DHT22;7693;49.266;7.104;2024-03-23T16:56:02;6.50;99.90
15184;DHT22;7693;49.266;7.104;2024-03-23T16:58:33;6.50;99.90
15184;DHT22;7693;49.266;7.104;2024-03-23T17:01:26;6.50;99.90
15184;DHT22;7693;49.266;7.104;2024-03-23T17:03:52;6.50;99.90
15184;DHT22;7693;49.266;7.104;2024-03-23T17:06:19;6.50;99.90
15184;DHT22;7693;49.266;7.104;2024-03-23T17:08:45;6.50;99.90
15184;DHT22;7693;49.266;7.104;2024-03-23T17:11:13;6.50;99.90
15184;DHT22;7693;49.266;7.104;2024-03-23T17:13:38;6.60;99.90
15184;DHT22;7693;49.266;7.104;2024-03-23T17:16:04;6.50;99.90
15184;DHT22;7693;49.266;7.104;2024-03-23T17:18:31;6.60;99.90
15184;DHT22;7693;49.266;7.104;2024-03-23T17:20:57;6.60;99.90
15184;DHT22;7693;49.266;7.104;2024-03-23T17:23:28;6.50;99.90
15184;DHT22;7693;49.266;7.104;2024-03-23T17:25:54;6.50;99.90
15184;DHT22;7693;49.266;7.104;2024-03-23T17:28:20;6.40;99.90
15184;DHT22;7693;49.266;7.104;2024-03-23T17:30:46;6.40;99.90
15184;DHT22;7693;49.266;7.104;2024-03-23T17:33:13;6.40;99.90
15184;DHT22;7693;49.266;7.104;2024-03-23T17:35:38;6.30;99.90
15184;DHT22;7693;49.266;7.104;2024-03-23T17:38:04;6.30;99.90
15184;DHT22;7693;49.266;7.104;2024-03-23T17:40:30;6.20;99.90
15184;DHT22;7693;49.266;7.104;2024-03-23T17:42:56;6.10;99.90
15184;DHT22;7693;49.266;7.104;2024-03-23T17:45:26;6.10;99.90
15184;DHT22;7693;49.266;7.104;2024-03-23T17:47:51;6.10;99.90
15184;DHT22;7693;49.266;7.104;2024-03-23T17:50:18;6.00;99.90
15184;DHT22;7693;49.266;7.104;2024-03-23T17:52:44;6.00;99.90
15184;DHT22;7693;49.266;7.104;2024-03-23T17:55:11;6.00;99.90
15184;DHT22;7693;49.266;7.104;2024-03-23T17:57:36;5.90;99.90
15184;DHT22;7693;49.266;7.104;2024-03-23T18:00:02;5.90;99.90
15184;DHT22;7693;49.266;7.104;2024-03-23T18:02:32;5.90;99.90
15184;DHT22;7693;49.266;7.104;2024-03-23T18:04:58;5.80;99.90
15184;DHT22;7693;49.266;7.104;2024-03-23T18:07:25;5.80;99.90
15184;DHT22;7693;49.266;7.104;2024-03-23T18:09:51;5.70;99.90
15184;DHT22;7693;49.266;7.104;2024-03-23T18:12:16;5.60;99.90
15184;DHT22;7693;49.266;7.104;2024-03-23T18:14:42;5.50;99.90
15184;DHT22;7693;49.266;7.104;2024-03-23T18:17:08;5.40;99.90
15184;DHT22;7693;49.266;7.104;2024-03-23T18:19:34;5.40;99.90
15184;DHT22;7693;49.266;7.104;2024-03-23T18:22:00;5.30;99.90
15184;DHT22;7693;49.266;7.104;2024-03-23T18:24:26;5.30;99.90
15184;DHT22;7693;49.266;7.104;2024-03-23T18:26:51;5.30;99.90
15184;DHT22;7693;49.266;7.104;2024-03-23T18:29:17;5.20;99.90
15184;DHT22;7693;49.266;7.104;2024-03-23T18:31:43;5.30;99.90
15184;DHT22;7693;49.266;7.104;2024-03-23T18:34:09;5.20;99.90
15184;DHT22;7693;49.266;7.104;2024-03-23T18:36:34;5.20;99.90
15184;DHT22;7693;49.266;7.104;2024-03-23T18:39:01;5.20;99.90
15184;DHT22;7693;49.266;7.104;2024-03-23T18:41:29;5.10;99.90
15184;DHT22;7693;49.266;7.104;2024-03-23T18:43:56;5.10;99.90
15184;DHT22;7693;49.266;7.104;2024-03-23T18:46:22;5.10;99.90
15184;DHT22;7693;49.266;7.104;2024-03-23T18:48:48;5.10;99.90
15184;DHT22;7693;49.266;7.104;2024-03-23T18:51:13;5.10;99.90
15184;DHT22;7693;49.266;7.104;2024-03-23T18:53:40;5.10;99.90
15184;DHT22;7693;49.266;7.104;2024-03-23T18:56:05;5.10;99.90
15184;DHT22;7693;49.266;7.104;2024-03-23T18:58:31;5.00;99.90
15184;DHT22;7693;49.266;7.104;2024-03-23T19:00:59;5.00;99.90
15184;DHT22;7693;49.266;7.104;2024-03-23T19:03:25;5.00;99.90
15184;DHT22;7693;49.266;7.104;2024-03-23T19:05:54;5.00;99.90
15184;DHT22;7693;49.266;7.104;2024-03-23T19:08:20;4.90;99.90
15184;DHT22;7693;49.266;7.104;2024-03-23T19:10:57;4.90;99.90
15184;DHT22;7693;49.266;7.104;2024-03-23T19:13:23;4.90;99.90
15184;DHT22;7693;49.266;7.104;2024-03-23T19:15:49;4.90;99.90
15184;DHT22;7693;49.266;7.104;2024-03-23T19:18:15;4.90;99.90
15184;DHT22;7693;49.266;7.104;2024-03-23T19:20:41;4.90;99.90
15184;DHT22;7693;49.266;7.104;2024-03-23T19:23:08;4.90;99.90
15184;DHT22;7693;49.266;7.104;2024-03-23T19:25:34;5.00;99.90
15184;DHT22;7693;49.266;7.104;2024-03-23T19:28:01;5.00;99.90
15184;DHT22;7693;49.266;7.104;2024-03-23T19:30:30;5.00;99.90
15184;DHT22;7693;49.266;7.104;2024-03-23T19:32:58;5.10;99.90
15184;DHT22;7693;49.266;7.104;2024-03-23T19:35:27;5.10;99.90
15184;DHT22;7693;49.266;7.104;2024-03-23T19:37:53;5.10;99.90
15184;DHT22;7693;49.266;7.104;2024-03-23T19:40:19;5.10;99.90
15184;DHT22;7693;49.266;7.104;2024-03-23T19:42:45;5.10;99.90
15184;DHT22;7693;49.266;7.104;2024-03-23T19:45:11;5.10;99.90
15184;DHT22;7693;49.266;7.104;2024-03-23T19:47:41;5.10;99.90
15184;DHT22;7693;49.266;7.104;2024-03-23T19:50:07;5.10;99.90
15184;DHT22;7693;49.266;7.104;2024-03-23T19:52:37;5.10;99.90
15184;DHT22;7693;49.266;7.104;2024-03-23T19:55:03;5.10;99.90
15184;DHT22;7693;49.266;7.104;2024-03-23T19:57:29;5.20;99.90
15184;DHT22;7693;49.266;7.104;2024-03-23T19:59:55;5.10;99.90
15184;DHT22;7693;49.266;7.104;2024-03-23T20:02:20;5.10;99.90
15184;DHT22;7693;49.266;7.104;2024-03-23T20:04:46;5.10;99.90
15184;DHT22;7693;49.266;7.104;2024-03-23T20:07:11;5.10;99.90
15184;DHT22;7693;49.266;7.104;2024-03-23T20:09:37;5.10;99.90
15184;DHT22;7693;49.266;7.104;2024-03-23T20:12:03;5.00;99.90
15184;DHT22;7693;49.266;7.104;2024-03-23T20:14:29;5.00;99.90
15184;DHT22;7693;49.266;7.104;2024-03-23T20:16:55;5.00;99.90
15184;DHT22;7693;49.266;7.104;2024-03-23T20:19:20;5.00;99.90
15184;DHT22;7693;49.266;7.104;2024-03-23T20:21:46;5.00;99.90
15184;DHT22;7693;49.266;7.104;2024-03-23T20:24:11;5.10;99.90
15184;DHT22;7693;49.266;7.104;2024-03-23T20:26:37;5.10;99.90
15184;DHT22;7693;49.266;7.104;2024-03-23T20:29:03;5.10;99.90
15184;DHT22;7693;49.266;7.104;2024-03-23T20:31:28;5.20;99.90
15184;DHT22;7693;49.266;7.104;2024-03-23T20:33:54;5.20;99.90
15184;DHT22;7693;49.266;7.104;2024-03-23T20:36:21;5.20;99.90
15184;DHT22;7693;49.266;7.104;2024-03-23T20:38:47;5.20;99.90
15184;DHT22;7693;49.266;7.104;2024-03-23T20:41:13;5.30;99.90
15184;DHT22;7693;49.266;7.104;2024-03-23T20:43:38;5.30;99.90
15184;DHT22;7693;49.266;7.104;2024-03-23T20:46:11;5.30;99.90
15184;DHT22;7693;49.266;7.104;2024-03-23T20:48:37;5.30;99.90
15184;DHT22;7693;49.266;7.104;2024-03-23T20:51:07;5.30;99.90
15184;DHT22;7693;49.266;7.104;2024-03-23T20:53:36;5.40;99.90
15184;DHT22;7693;49.266;7.104;2024-03-23T20:56:02;5.40;99.90
15184;DHT22;7693;49.266;7.104;2024-03-23T20:58:29;5.40;99.90
15184;DHT22;7693;49.266;7.104;2024-03-23T21:00:58;5.40;99.90
15184;DHT22;7693;49.266;7.104;2024-03-23T21:03:24;5.40;99.90
15184;DHT22;7693;49.266;7.104;2024-03-23T21:05:52;5.40;99.90
15184;DHT22;7693;49.266;7.104;2024-03-23T21:08:18;5.40;99.90
15184;DHT22;7693;49.266;7.104;2024-03-23T21:10:54;5.40;99.90
15184;DHT22;7693;49.266;7.104;2024-03-23T21:13:21;5.40;99.90
15184;DHT22;7693;49.266;7.104;2024-03-23T21:18:14;5.40;99.90
15184;DHT22;7693;49.266;7.104;2024-03-23T21:20:39;5.40;99.90
15184;DHT22;7693;49.266;7.104;2024-03-23T21:23:05;5.30;99.90
15184;DHT22;7693;49.266;7.104;2024-03-23T21:25:31;5.30;99.90
15184;DHT22;7693;49.266;7.104;2024-03-23T21:27:57;5.30;99.90
15184;DHT22;7693;49.266;7.104;2024-03-23T21:30:23;5.30;99.90
15184;DHT22;7693;49.266;7.104;2024-03-23T21:32:48;5.30;99.90
15184;DHT22;7693;49.266;7.104;2024-03-23T21:35:14;5.30;99.90
15184;DHT22;7693;49.266;7.104;2024-03-23T21:37:40;5.30;99.90
15184;DHT22;7693;49.266;7.104;2024-03-23T21:40:06;5.30;99.90
15184;DHT22;7693;49.266;7.104;2024-03-23T21:42:34;5.30;99.90
15184;DHT22;7693;49.266;7.104;2024-03-23T21:45:00;5.30;99.90
15184;DHT22;7693;49.266;7.104;2024-03-23T21:47:26;5.30;99.90
15184;DHT22;7693;49.266;7.104;2024-03-23T21:49:51;5.30;99.90
15184;DHT22;7693;49.266;7.104;2024-03-23T21:52:17;5.30;99.90
15184;DHT22;7693;49.266;7.104;2024-03-23T21:54:42;5.30;99.90
15184;DHT22;7693;49.266;7.104;2024-03-23T21:57:08;5.30;99.90
15184;DHT22;7693;49.266;7.104;2024-03-23T21:59:35;5.30;99.90
15184;DHT22;7693;49.266;7.104;2024-03-23T22:02:00;5.30;99.90
15184;DHT22;7693;49.266;7.104;2024-03-23T22:04:26;5.30;99.90
15184;DHT22;7693;49.266;7.104;2024-03-23T22:06:52;5.40;99.90
15184;DHT22;7693;49.266;7.104;2024-03-23T22:09:18;5.40;99.90
15184;DHT22;7693;49.266;7.104;2024-03-23T22:11:44;5.30;99.90
15184;DHT22;7693;49.266;7.104;2024-03-23T22:14:10;5.40;99.90
15184;DHT22;7693;49.266;7.104;2024-03-23T22:16:35;5.40;99.90
15184;DHT22;7693;49.266;7.104;2024-03-23T22:19:01;5.40;99.90
15184;DHT22;7693;49.266;7.104;2024-03-23T22:21:27;5.30;99.90
15184;DHT22;7693;49.266;7.104;2024-03-23T22:23:52;5.30;99.90
15184;DHT22;7693;49.266;7.104;2024-03-23T22:26:18;5.30;99.90
15184;DHT22;7693;49.266;7.104;2024-03-23T22:28:46;5.30;99.90
15184;DHT22;7693;49.266;7.104;2024-03-23T22:31:12;5.40;99.90
15184;DHT22;7693;49.266;7.104;2024-03-23T22:33:38;5.40;99.90
15184;DHT22;7693;49.266;7.104;2024-03-23T22:36:04;5.30;99.90
15184;DHT22;7693;49.266;7.104;2024-03-23T22:38:30;5.30;99.90
15184;DHT22;7693;49.266;7.104;2024-03-23T22:43:23;5.30;99.90
15184;DHT22;7693;49.266;7.104;2024-03-23T22:46:02;5.40;99.90
15184;DHT22;7693;49.266;7.104;2024-03-23T22:48:30;5.30;99.90
15184;DHT22;7693;49.266;7.104;2024-03-23T22:50:58;5.40;99.90
15184;DHT22;7693;49.266;7.104;2024-03-23T22:53:24;5.40;99.90
15184;DHT22;7693;49.266;7.104;2024-03-23T22:55:53;5.40;99.90
15184;DHT22;7693;49.266;7.104;2024-03-23T22:58:19;5.40;99.90
15184;DHT22;7693;49.266;7.104;2024-03-23T23:00:46;5.40;99.90
15184;DHT22;7693;49.266;7.104;2024-03-23T23:03:16;5.40;99.90
15184;DHT22;7693;49.266;7.104;2024-03-23T23:05:42;5.50;99.90
15184;DHT22;7693;49.266;7.104;2024-03-23T23:08:09;5.40;99.90
15184;DHT22;7693;49.266;7.104;2024-03-23T23:10:35;5.40;99.90
15184;DHT22;7693;49.266;7.104;2024-03-23T23:13:02;5.40;99.90
15184;DHT22;7693;49.266;7.104;2024-03-23T23:15:28;5.40;99.90
15184;DHT22;7693;49.266;7.104;2024-03-23T23:17:54;5.40;99.90
15184;DHT22;7693;49.266;7.104;2024-03-23T23:20:20;5.40;99.90
15184;DHT22;7693;49.266;7.104;2024-03-23T23:22:45;5.40;99.90
15184;DHT22;7693;49.266;7.104;2024-03-23T23:25:11;5.40;99.90
15184;DHT22;7693;49.266;7.104;2024-03-23T23:27:37;5.40;99.90
15184;DHT22;7693;49.266;7.104;2024-03-23T23:30:04;5.40;99.90
15184;DHT22;7693;49.266;7.104;2024-03-23T23:32:30;5.40;99.90
15184;DHT22;7693;49.266;7.104;2024-03-23T23:35:00;5.40;99.90
15184;DHT22;7693;49.266;7.104;2024-03-23T23:37:26;5.30;99.90
15184;DHT22;7693;49.266;7.104;2024-03-23T23:39:53;5.30;99.90
15184;DHT22;7693;49.266;7.104;2024-03-23T23:42:23;5.30;99.90
15184;DHT22;7693;49.266;7.104;2024-03-23T23:44:50;5.30;99.90
15184;DHT22;7693;49.266;7.104;2024-03-23T23:47:16;5.30;99.90
15184;DHT22;7693;49.266;7.104;2024-03-23T23:49:42;5.30;99.90
15184;DHT22;7693;49.266;7.104;2024-03-23T23:52:08;5.20;99.90
15184;DHT22;7693;49.266;7.104;2024-03-23T23:54:34;5.20;99.90
15184;DHT22;7693;49.266;7.104;2024-03-23T23:57:00;5.20;99.90
15184;DHT22;7693;49.266;7.104;2024-03-23T23:59:25;5.20;99.90
